createdAt,value
2019-03-29T00:02:31.428Z,9.37
2019-03-29T00:05:03.993Z,9.31
2019-03-29T00:07:39.947Z,9.20
2019-03-29T00:10:10.957Z,9.14
2019-03-29T00:12:43.462Z,9.11
2019-03-29T00:15:15.995Z,9.08
2019-03-29T00:17:48.537Z,9.07
2019-03-29T00:20:21.084Z,9.01
2019-03-29T00:22:53.633Z,8.95
2019-03-29T00:25:26.183Z,8.90
2019-03-29T00:27:58.683Z,8.81
2019-03-29T00:30:31.208Z,8.89
2019-03-29T00:33:03.695Z,8.86
2019-03-29T00:35:36.248Z,8.94
2019-03-29T00:38:08.784Z,8.87
2019-03-29T00:40:41.346Z,8.91
2019-03-29T00:43:13.870Z,8.86
2019-03-29T00:45:46.377Z,8.92
2019-03-29T00:48:18.903Z,8.86
2019-03-29T00:50:51.430Z,8.89
2019-03-29T00:53:23.916Z,8.92
2019-03-29T00:55:56.497Z,8.97
2019-03-29T00:58:29.025Z,9.08
2019-03-29T01:01:01.545Z,9.11
2019-03-29T01:03:34.034Z,8.92
2019-03-29T01:06:06.567Z,8.90
2019-03-29T01:08:39.095Z,8.94
2019-03-29T01:11:11.614Z,8.98
2019-03-29T01:13:44.153Z,8.86
2019-03-29T01:16:16.671Z,8.81
2019-03-29T01:18:49.217Z,8.82
2019-03-29T01:21:21.704Z,8.76
2019-03-29T01:23:54.259Z,8.79
2019-03-29T01:26:27.168Z,8.73
2019-03-29T01:28:59.887Z,8.76
2019-03-29T01:31:32.393Z,8.76
2019-03-29T01:34:04.909Z,8.77
2019-03-29T01:36:37.426Z,8.75
2019-03-29T01:39:09.982Z,8.73
2019-03-29T01:41:42.490Z,8.71
2019-03-29T01:44:15.031Z,8.63
2019-03-29T01:46:47.532Z,8.62
2019-03-29T01:49:20.093Z,8.55
2019-03-29T01:51:53.923Z,8.51
2019-03-29T01:54:26.590Z,8.53
2019-03-29T01:56:59.074Z,8.51
2019-03-29T01:59:31.636Z,8.51
2019-03-29T02:02:04.133Z,8.45
2019-03-29T02:04:36.654Z,8.48
2019-03-29T02:07:09.204Z,8.44
2019-03-29T02:09:41.717Z,8.47
2019-03-29T02:12:14.222Z,8.48
2019-03-29T02:14:47.016Z,8.37
2019-03-29T02:17:19.551Z,8.31
2019-03-29T02:19:52.053Z,8.25
2019-03-29T02:22:24.572Z,8.20
2019-03-29T02:24:57.088Z,8.12
2019-03-29T02:27:29.646Z,8.05
2019-03-29T02:30:04.363Z,8.05
2019-03-29T02:32:36.578Z,7.98
2019-03-29T02:35:09.100Z,8.01
2019-03-29T02:37:41.619Z,7.93
2019-03-29T02:40:14.124Z,7.91
2019-03-29T02:42:46.622Z,7.90
2019-03-29T02:45:19.167Z,7.97
2019-03-29T02:47:51.674Z,7.95
2019-03-29T02:50:24.184Z,7.86
2019-03-29T02:52:56.697Z,7.96
2019-03-29T02:55:29.258Z,7.97
2019-03-29T02:58:01.779Z,7.91
2019-03-29T03:00:34.292Z,7.85
2019-03-29T03:03:06.893Z,7.82
2019-03-29T03:05:39.403Z,7.83
2019-03-29T03:08:11.884Z,7.80
2019-03-29T03:10:44.456Z,7.79
2019-03-29T03:13:16.988Z,7.71
2019-03-29T03:15:49.517Z,7.65
2019-03-29T03:18:21.990Z,7.56
2019-03-29T03:20:54.500Z,7.51
2019-03-29T03:23:26.985Z,7.47
2019-03-29T03:25:59.498Z,7.46
2019-03-29T03:28:32.017Z,7.43
2019-03-29T03:31:04.523Z,7.33
2019-03-29T03:33:37.016Z,7.22
2019-03-29T03:36:09.531Z,7.16
2019-03-29T03:38:42.029Z,7.11
2019-03-29T03:41:14.533Z,7.10
2019-03-29T03:43:47.033Z,7.04
2019-03-29T03:46:19.543Z,7.15
2019-03-29T03:48:52.032Z,7.06
2019-03-29T03:51:24.652Z,7.06
2019-03-29T03:53:57.154Z,7.02
2019-03-29T03:56:30.560Z,6.98
2019-03-29T03:59:03.212Z,6.93
2019-03-29T04:01:35.740Z,6.95
2019-03-29T04:04:08.230Z,6.83
2019-03-29T04:06:41.197Z,6.72
2019-03-29T04:09:13.675Z,6.67
2019-03-29T04:11:46.195Z,6.61
2019-03-29T04:14:18.739Z,6.51
2019-03-29T04:16:51.265Z,6.38
2019-03-29T04:19:23.801Z,6.29
2019-03-29T04:21:56.310Z,6.17
2019-03-29T04:24:28.793Z,6.14
2019-03-29T04:27:01.303Z,6.16
2019-03-29T04:29:33.827Z,6.17
2019-03-29T04:32:06.295Z,6.16
2019-03-29T04:34:38.867Z,6.19
2019-03-29T04:37:11.359Z,6.24
2019-03-29T04:39:43.875Z,6.16
2019-03-29T04:42:16.535Z,6.16
2019-03-29T04:44:49.056Z,6.10
2019-03-29T04:47:21.591Z,6.04
2019-03-29T04:49:54.091Z,6.05
2019-03-29T04:52:26.580Z,6.05
2019-03-29T04:54:59.133Z,6.03
2019-03-29T04:57:31.622Z,6.03
2019-03-29T05:00:04.445Z,5.93
2019-03-29T05:02:36.964Z,5.95
2019-03-29T05:05:09.497Z,5.96
2019-03-29T05:07:42.171Z,5.91
2019-03-29T05:10:21.043Z,5.95
2019-03-29T05:12:49.112Z,5.92
2019-03-29T05:15:21.646Z,5.90
2019-03-29T05:17:54.142Z,5.96
2019-03-29T05:20:26.693Z,5.94
2019-03-29T05:22:59.182Z,5.95
2019-03-29T05:25:31.736Z,5.98
2019-03-29T05:28:04.256Z,5.99
2019-03-29T05:30:36.756Z,6.00
2019-03-29T05:33:09.292Z,6.05
2019-03-29T05:35:41.813Z,6.05
2019-03-29T05:38:14.341Z,6.06
2019-03-29T05:40:46.826Z,6.05
2019-03-29T05:43:19.332Z,6.13
2019-03-29T05:45:51.826Z,6.18
2019-03-29T05:48:24.377Z,6.18
2019-03-29T05:50:56.878Z,6.23
2019-03-29T05:53:29.388Z,6.29
2019-03-29T05:56:01.993Z,6.38
2019-03-29T05:58:34.544Z,6.61
2019-03-29T06:01:07.094Z,6.95
2019-03-29T06:03:39.703Z,7.29
2019-03-29T06:06:12.219Z,7.66
2019-03-29T06:08:44.765Z,7.89
2019-03-29T06:11:17.269Z,8.11
2019-03-29T06:13:49.841Z,8.35
2019-03-29T06:16:22.341Z,8.53
2019-03-29T06:18:54.900Z,8.56
2019-03-29T06:21:27.449Z,8.69
2019-03-29T06:23:59.994Z,8.79
2019-03-29T06:26:32.489Z,9.03
2019-03-29T06:29:05.034Z,9.24
2019-03-29T06:31:37.545Z,9.67
2019-03-29T06:34:10.106Z,10.04
2019-03-29T06:36:42.742Z,10.49
2019-03-29T06:39:15.487Z,10.79
2019-03-29T06:41:47.978Z,10.71
2019-03-29T06:44:20.469Z,11.20
2019-03-29T06:46:53.009Z,11.58
2019-03-29T06:49:25.551Z,11.43
2019-03-29T06:51:58.044Z,12.38
2019-03-29T06:54:30.563Z,12.38
2019-03-29T06:57:03.067Z,12.88
2019-03-29T06:59:35.593Z,13.41
2019-03-29T07:02:08.086Z,13.43
2019-03-29T07:04:40.636Z,13.87
2019-03-29T07:07:13.111Z,14.42
2019-03-29T07:09:45.632Z,14.75
2019-03-29T07:12:18.958Z,14.95
2019-03-29T07:14:51.478Z,15.07
2019-03-29T07:17:23.967Z,15.00
2019-03-29T07:19:56.482Z,15.22
2019-03-29T07:22:28.984Z,14.78
2019-03-29T07:25:01.494Z,14.99
2019-03-29T07:27:44.617Z,14.67
2019-03-29T07:30:08.475Z,14.91
2019-03-29T07:32:41.022Z,14.99
2019-03-29T07:35:13.586Z,14.81
2019-03-29T07:37:46.048Z,14.66
2019-03-29T07:40:18.576Z,14.14
2019-03-29T07:42:51.084Z,14.29
2019-03-29T07:45:23.600Z,13.98
2019-03-29T07:47:56.102Z,14.32
2019-03-29T07:50:28.645Z,14.14
2019-03-29T07:53:01.152Z,14.15
2019-03-29T07:55:37.071Z,14.46
2019-03-29T07:58:08.057Z,14.48
2019-03-29T08:00:40.602Z,14.62
2019-03-29T08:03:13.095Z,14.88
2019-03-29T08:05:45.614Z,14.69
2019-03-29T08:08:24.613Z,14.47
2019-03-29T08:10:53.968Z,14.72
2019-03-29T08:13:26.719Z,14.98
2019-03-29T08:15:59.272Z,15.17
2019-03-29T08:18:31.771Z,15.30
2019-03-29T08:21:04.322Z,15.39
2019-03-29T08:23:36.903Z,15.53
2019-03-29T08:26:09.434Z,15.64
2019-03-29T08:28:41.961Z,15.30
2019-03-29T08:31:14.484Z,15.53
2019-03-29T08:33:46.991Z,15.25
2019-03-29T08:36:19.524Z,15.20
2019-03-29T08:38:52.026Z,15.21
2019-03-29T08:41:24.518Z,15.09
2019-03-29T08:43:57.073Z,14.99
2019-03-29T08:46:29.565Z,15.17
2019-03-29T08:49:02.073Z,15.61
2019-03-29T08:51:34.581Z,15.71
2019-03-29T08:54:07.090Z,16.03
2019-03-29T08:56:39.602Z,15.93
2019-03-29T08:59:12.140Z,16.05
2019-03-29T09:01:44.634Z,15.81
2019-03-29T09:04:17.156Z,15.50
2019-03-29T09:06:53.641Z,15.55
2019-03-29T09:09:24.119Z,15.62
2019-03-29T09:11:56.636Z,15.59
2019-03-29T09:14:31.425Z,15.96
2019-03-29T09:17:03.549Z,16.17
2019-03-29T09:19:36.098Z,16.42
2019-03-29T09:22:08.585Z,16.87
2019-03-29T09:24:41.110Z,17.06
2019-03-29T09:27:13.611Z,16.93
2019-03-29T09:29:46.140Z,16.95
2019-03-29T09:32:18.647Z,16.90
2019-03-29T09:34:51.188Z,16.45
2019-03-29T09:37:23.694Z,16.24
2019-03-29T09:39:56.199Z,15.98
2019-03-29T09:42:30.215Z,15.90
2019-03-29T09:45:03.101Z,15.74
2019-03-29T09:47:40.182Z,15.88
2019-03-29T09:50:10.819Z,15.88
2019-03-29T09:52:43.433Z,16.25
2019-03-29T09:55:18.847Z,16.41
2019-03-29T09:57:50.337Z,16.59
2019-03-29T10:00:23.641Z,16.23
2019-03-29T10:02:56.333Z,16.28
2019-03-29T10:05:31.269Z,16.64
2019-03-29T10:08:03.238Z,16.91
2019-03-29T10:10:35.801Z,17.06
2019-03-29T10:13:08.287Z,17.28
2019-03-29T10:15:40.845Z,17.55
2019-03-29T10:18:13.340Z,17.00
2019-03-29T10:20:45.871Z,16.87
2019-03-29T10:23:18.400Z,17.02
2019-03-29T10:25:50.927Z,17.23
2019-03-29T10:28:23.425Z,17.33
2019-03-29T10:30:55.953Z,17.14
2019-03-29T10:33:28.426Z,17.18
2019-03-29T10:36:00.920Z,16.99
2019-03-29T10:38:33.403Z,17.24
2019-03-29T10:41:05.952Z,17.28
2019-03-29T10:43:38.438Z,17.61
2019-03-29T10:46:10.993Z,17.61
2019-03-29T10:48:43.474Z,17.84
2019-03-29T10:51:15.999Z,18.08
2019-03-29T10:53:48.508Z,17.88
2019-03-29T10:56:33.461Z,17.48
2019-03-29T10:58:55.489Z,17.33
2019-03-29T11:01:28.009Z,17.49
2019-03-29T11:04:00.542Z,17.55
2019-03-29T11:06:33.059Z,17.62
2019-03-29T11:09:06.757Z,17.26
2019-03-29T11:11:39.300Z,17.39
2019-03-29T11:14:11.790Z,17.37
2019-03-29T11:16:44.353Z,17.41
2019-03-29T11:19:16.839Z,17.44
2019-03-29T11:21:49.367Z,17.26
2019-03-29T11:24:21.870Z,16.74
2019-03-29T11:26:54.352Z,16.77
2019-03-29T11:29:26.924Z,16.76
2019-03-29T11:31:59.431Z,16.58
2019-03-29T11:34:31.942Z,16.73
2019-03-29T11:37:04.469Z,16.64
2019-03-29T11:39:36.989Z,16.50
2019-03-29T11:42:09.490Z,16.64
2019-03-29T11:44:42.045Z,16.74
2019-03-29T11:47:14.550Z,17.04
2019-03-29T11:49:47.065Z,16.94
2019-03-29T11:52:19.573Z,16.92
2019-03-29T11:54:52.203Z,16.61
2019-03-29T11:57:24.739Z,16.32
2019-03-29T11:59:57.320Z,16.35
2019-03-29T12:02:31.566Z,16.21
2019-03-29T12:05:04.954Z,16.52
2019-03-29T12:07:37.481Z,16.54
2019-03-29T12:10:10.026Z,16.56
2019-03-29T12:12:42.557Z,16.61
2019-03-29T12:15:15.109Z,16.56
2019-03-29T12:17:47.719Z,16.64
2019-03-29T12:20:20.252Z,16.63
2019-03-29T12:22:52.790Z,16.67
2019-03-29T12:25:25.310Z,16.73
2019-03-29T12:27:57.864Z,16.70
2019-03-29T12:30:32.337Z,16.82
2019-03-29T12:33:04.934Z,16.79
2019-03-29T12:35:37.507Z,16.61
2019-03-29T12:38:10.026Z,16.75
2019-03-29T12:40:45.053Z,16.87
2019-03-29T12:43:17.011Z,16.76
2019-03-29T12:45:49.557Z,16.87
2019-03-29T12:48:22.077Z,16.95
2019-03-29T12:50:54.617Z,16.80
2019-03-29T12:53:27.176Z,16.90
2019-03-29T12:56:01.766Z,16.89
2019-03-29T12:58:34.316Z,16.84
2019-03-29T13:01:07.052Z,16.78
2019-03-29T13:03:39.860Z,16.86
2019-03-29T13:06:12.405Z,16.72
2019-03-29T13:08:44.928Z,16.90
2019-03-29T13:11:17.458Z,16.74
2019-03-29T13:13:50.110Z,16.59
2019-03-29T13:16:22.621Z,16.86
2019-03-29T13:18:55.112Z,16.88
2019-03-29T13:21:27.735Z,16.91
2019-03-29T13:24:00.265Z,16.92
2019-03-29T13:26:32.817Z,17.00
2019-03-29T13:29:05.462Z,16.93
2019-03-29T13:31:38.008Z,17.18
2019-03-29T13:34:10.547Z,17.19
2019-03-29T13:36:43.077Z,17.07
2019-03-29T13:39:15.710Z,17.14
2019-03-29T13:41:48.281Z,17.29
2019-03-29T13:44:24.536Z,17.29
2019-03-29T13:46:55.293Z,17.15
2019-03-29T13:49:27.788Z,17.14
2019-03-29T13:52:00.321Z,17.11
2019-03-29T13:54:32.825Z,17.18
2019-03-29T13:57:05.367Z,17.21
2019-03-29T13:59:37.899Z,17.32
2019-03-29T14:02:10.439Z,17.28
2019-03-29T14:04:42.964Z,17.20
2019-03-29T14:07:15.488Z,17.23
2019-03-29T14:09:48.048Z,17.26
2019-03-29T14:12:20.585Z,17.01
2019-03-29T14:14:53.128Z,16.77
2019-03-29T14:17:25.662Z,16.97
2019-03-29T14:19:58.199Z,16.98
2019-03-29T14:22:30.747Z,17.16
2019-03-29T14:25:03.533Z,17.06
2019-03-29T14:27:36.124Z,17.11
2019-03-29T14:30:08.728Z,17.20
2019-03-29T14:32:41.294Z,17.37
2019-03-29T14:35:13.800Z,17.42
2019-03-29T14:37:46.365Z,17.44
2019-03-29T14:40:18.895Z,17.36
2019-03-29T14:42:51.425Z,17.42
2019-03-29T14:45:23.948Z,17.08
2019-03-29T14:47:56.499Z,17.13
2019-03-29T14:50:29.014Z,17.32
2019-03-29T14:53:01.527Z,17.34
2019-03-29T14:55:34.093Z,17.32
2019-03-29T14:58:06.630Z,17.26
2019-03-29T15:00:40.994Z,17.34
2019-03-29T15:03:13.620Z,17.47
2019-03-29T15:05:46.170Z,17.48
2019-03-29T15:08:18.759Z,17.24
2019-03-29T15:10:51.336Z,17.33
2019-03-29T15:13:23.899Z,17.48
2019-03-29T15:15:56.421Z,17.20
2019-03-29T15:18:28.991Z,17.22
2019-03-29T15:21:01.645Z,17.17
2019-03-29T15:23:34.162Z,17.23
2019-03-29T15:26:06.760Z,17.26
2019-03-29T15:28:39.281Z,17.29
2019-03-29T15:31:11.790Z,17.37
2019-03-29T15:33:44.332Z,17.23
2019-03-29T15:36:16.904Z,17.22
2019-03-29T15:38:49.918Z,17.59
2019-03-29T15:41:22.473Z,17.36
2019-03-29T15:43:54.987Z,17.38
2019-03-29T15:46:27.529Z,17.43
2019-03-29T15:49:00.038Z,17.36
2019-03-29T15:51:32.594Z,17.38
2019-03-29T15:54:05.164Z,17.36
2019-03-29T15:56:37.698Z,17.39
2019-03-29T15:59:10.242Z,17.11
2019-03-29T16:01:42.902Z,16.96
2019-03-29T16:04:15.454Z,17.13
2019-03-29T16:06:47.969Z,16.88
2019-03-29T16:09:20.543Z,16.96
2019-03-29T16:11:53.087Z,17.08
2019-03-29T16:14:25.698Z,17.05
2019-03-29T16:16:58.261Z,17.01
2019-03-29T16:19:30.778Z,16.94
2019-03-29T16:22:05.923Z,16.95
2019-03-29T16:24:37.820Z,16.99
2019-03-29T16:27:10.414Z,16.84
2019-03-29T16:29:42.967Z,16.99
2019-03-29T16:32:15.505Z,16.84
2019-03-29T16:34:50.523Z,16.93
2019-03-29T16:37:22.486Z,16.90
2019-03-29T16:39:55.011Z,16.95
2019-03-29T16:42:28.607Z,17.02
2019-03-29T16:45:01.171Z,16.91
2019-03-29T16:47:33.738Z,16.75
2019-03-29T16:50:06.944Z,16.64
2019-03-29T16:52:39.458Z,16.65
2019-03-29T16:55:13.997Z,16.66
2019-03-29T16:57:46.474Z,16.59
2019-03-29T17:00:19.032Z,16.57
2019-03-29T17:02:51.621Z,16.39
2019-03-29T17:05:24.135Z,16.47
2019-03-29T17:07:56.703Z,16.47
2019-03-29T17:10:29.275Z,16.34
2019-03-29T17:13:01.836Z,16.41
2019-03-29T17:15:34.331Z,16.30
2019-03-29T17:18:06.864Z,16.33
2019-03-29T17:20:39.407Z,16.10
2019-03-29T17:23:11.950Z,15.90
2019-03-29T17:25:44.482Z,15.86
2019-03-29T17:28:17.041Z,15.76
2019-03-29T17:30:53.193Z,15.75
2019-03-29T17:33:25.722Z,15.81
2019-03-29T17:35:58.235Z,15.81
2019-03-29T17:38:30.789Z,15.51
2019-03-29T17:41:03.321Z,15.39
2019-03-29T17:43:35.881Z,15.42
2019-03-29T17:46:16.218Z,15.39
2019-03-29T17:48:42.881Z,15.38
2019-03-29T17:51:15.405Z,15.25
2019-03-29T17:53:48.125Z,15.12
2019-03-29T17:56:20.654Z,14.97
2019-03-29T17:58:53.199Z,14.80
2019-03-29T18:01:25.787Z,14.71
2019-03-29T18:03:58.393Z,14.57
2019-03-29T18:06:30.951Z,14.47
2019-03-29T18:09:05.826Z,14.33
2019-03-29T18:11:38.415Z,14.30
2019-03-29T18:14:10.988Z,14.15
2019-03-29T18:16:43.549Z,14.01
2019-03-29T18:19:16.070Z,13.86
2019-03-29T18:21:48.614Z,13.74
2019-03-29T18:24:21.150Z,13.64
2019-03-29T18:26:53.743Z,13.47
2019-03-29T18:29:26.301Z,13.36
2019-03-29T18:31:59.005Z,13.26
2019-03-29T18:34:31.716Z,13.17
2019-03-29T18:37:04.290Z,13.06
2019-03-29T18:39:37.030Z,12.92
2019-03-29T18:42:09.604Z,12.78
2019-03-29T18:44:42.244Z,12.66
2019-03-29T18:47:14.772Z,12.57
2019-03-29T18:49:47.343Z,12.52
2019-03-29T18:52:19.940Z,12.43
2019-03-29T18:54:52.457Z,12.31
2019-03-29T18:57:25.009Z,12.24
2019-03-29T18:59:57.635Z,12.12
2019-03-29T19:02:30.218Z,12.05
2019-03-29T19:05:03.003Z,11.98
2019-03-29T19:07:35.565Z,11.92
2019-03-29T19:10:08.120Z,11.85
2019-03-29T19:12:40.743Z,11.76
2019-03-29T19:15:13.373Z,11.67
2019-03-29T19:17:49.242Z,11.63
2019-03-29T19:20:27.986Z,11.53
2019-03-29T19:22:56.730Z,11.47
2019-03-29T19:25:29.370Z,11.33
2019-03-29T19:28:02.013Z,11.32
2019-03-29T19:30:34.602Z,11.32
2019-03-29T19:33:07.206Z,11.24
2019-03-29T19:35:39.822Z,11.19
2019-03-29T19:38:12.441Z,11.00
2019-03-29T19:40:45.020Z,10.94
2019-03-29T19:43:17.667Z,10.81
2019-03-29T19:45:50.302Z,10.86
2019-03-29T19:48:22.822Z,10.67
2019-03-29T19:50:55.423Z,10.59
2019-03-29T19:53:28.089Z,10.55
2019-03-29T19:56:00.752Z,10.55
2019-03-29T19:58:33.341Z,10.52
2019-03-29T20:01:05.971Z,10.46
2019-03-29T20:03:38.573Z,10.46
2019-03-29T20:06:11.186Z,10.35
2019-03-29T20:08:43.748Z,10.22
2019-03-29T20:11:16.381Z,10.15
2019-03-29T20:13:49.449Z,10.09
2019-03-29T20:16:22.062Z,10.11
2019-03-29T20:18:54.735Z,10.00
2019-03-29T20:21:27.344Z,9.96
2019-03-29T20:23:59.949Z,9.98
2019-03-29T20:26:32.548Z,9.92
2019-03-29T20:29:05.166Z,9.87
2019-03-29T20:31:37.824Z,9.81
2019-03-29T20:34:10.406Z,9.81
2019-03-29T20:36:43.066Z,9.77
2019-03-29T20:39:15.630Z,9.78
2019-03-29T20:41:48.276Z,9.73
2019-03-29T20:44:20.899Z,9.68
2019-03-29T20:46:53.537Z,9.63
2019-03-29T20:49:26.163Z,9.58
2019-03-29T20:51:58.785Z,9.52
2019-03-29T20:54:32.683Z,9.54
2019-03-29T20:57:05.362Z,9.51
2019-03-29T20:59:37.890Z,9.44
2019-03-29T21:02:10.541Z,9.42
2019-03-29T21:04:43.089Z,9.40
2019-03-29T21:07:15.675Z,9.41
2019-03-29T21:09:48.279Z,9.36
2019-03-29T21:12:20.876Z,9.28
2019-03-29T21:14:53.422Z,9.31
2019-03-29T21:17:26.010Z,9.22
2019-03-29T21:19:58.580Z,9.15
2019-03-29T21:22:31.282Z,9.08
2019-03-29T21:25:04.594Z,9.05
2019-03-29T21:27:37.453Z,8.99
2019-03-29T21:30:10.350Z,8.88
2019-03-29T21:32:42.944Z,8.86
2019-03-29T21:35:15.545Z,8.78
2019-03-29T21:37:48.422Z,8.67
2019-03-29T21:40:21.002Z,8.47
2019-03-29T21:42:53.558Z,8.42
2019-03-29T21:45:28.863Z,8.39
2019-03-29T21:48:08.916Z,8.36
2019-03-29T21:50:35.006Z,8.34
2019-03-29T21:53:07.599Z,8.24
2019-03-29T21:55:40.207Z,8.23
2019-03-29T21:58:12.756Z,8.15
2019-03-29T22:00:45.324Z,8.11
2019-03-29T22:03:17.865Z,8.06
2019-03-29T22:05:50.422Z,8.05
2019-03-29T22:08:23.102Z,8.08
2019-03-29T22:10:55.712Z,8.08
2019-03-29T22:13:28.269Z,8.02
2019-03-29T22:16:00.927Z,8.04
2019-03-29T22:18:38.128Z,7.92
2019-03-29T22:21:07.936Z,7.84
2019-03-29T22:23:40.466Z,7.78
2019-03-29T22:26:13.052Z,7.76
2019-03-29T22:28:45.622Z,7.77
2019-03-29T22:31:18.177Z,7.72
2019-03-29T22:33:50.706Z,7.68
2019-03-29T22:36:23.253Z,7.70
2019-03-29T22:38:55.789Z,7.65
2019-03-29T22:41:28.343Z,7.59
2019-03-29T22:44:00.886Z,7.62
2019-03-29T22:46:33.444Z,7.53
2019-03-29T22:49:06.076Z,7.49
2019-03-29T22:51:38.615Z,7.54
2019-03-29T22:54:11.117Z,7.55
2019-03-29T22:56:43.645Z,7.57
2019-03-29T22:59:16.164Z,7.45
2019-03-29T23:01:48.725Z,7.42
2019-03-29T23:04:21.290Z,7.32
2019-03-29T23:06:53.837Z,7.28
2019-03-29T23:09:26.399Z,7.28
2019-03-29T23:11:59.068Z,7.18
2019-03-29T23:14:31.604Z,7.15
2019-03-29T23:17:04.170Z,7.22
2019-03-29T23:19:36.720Z,7.21
2019-03-29T23:22:09.312Z,7.08
2019-03-29T23:24:41.814Z,7.00
2019-03-29T23:27:14.337Z,6.90
2019-03-29T23:29:47.258Z,6.89
2019-03-29T23:32:19.868Z,6.90
2019-03-29T23:34:52.355Z,6.87
2019-03-29T23:37:24.881Z,6.82
2019-03-29T23:39:57.374Z,6.83
2019-03-29T23:42:29.902Z,6.79
2019-03-29T23:45:02.407Z,6.76
2019-03-29T23:47:34.969Z,6.72
2019-03-29T23:50:07.566Z,6.72
2019-03-29T23:52:40.139Z,6.62
2019-03-29T23:55:12.627Z,6.53
2019-03-29T23:57:45.149Z,6.45
